Time;durP1;ratioP1;P1;durP2;ratioP2;P2;SDS_P1;SDS_P2;PMS_P1;PMS_P2;Temp;Humidity;BMP_temperature;BMP_pressure;BME280_temperature;BME280_humidity;BME280_pressure;Samples;Min_cycle;Max_cycle;Signal;HPM_P1;HPM_P2
2021/09/20 00:01:51;;;;;;;4.32;3.70;;;;;;;;;;5007339;28;20030;-85
2021/09/20 00:04:17;;;;;;;5.43;3.92;;;;;;;;;;4991238;28;20096;-86
2021/09/20 00:06:42;;;;;;;4.50;3.75;;;;;;;;;;5002966;28;20068;-85
2021/09/20 00:09:07;;;;;;;5.28;4.55;;;;;;;;;;4986673;28;20546;-85
2021/09/20 00:11:32;;;;;;;5.45;4.10;;;;;;;;;;4978048;28;20030;-85
2021/09/20 00:13:58;;;;;;;3.92;3.33;;;;;;;;;;4984281;28;20031;-85
2021/09/20 00:16:23;;;;;;;4.93;4.20;;;;;;;;;;4978013;28;20032;-85
2021/09/20 00:18:48;;;;;;;4.97;4.20;;;;;;;;;;4995371;28;20396;-85
2021/09/20 00:21:14;;;;;;;4.97;3.90;;;;;;;;;;4983734;28;20089;-85
2021/09/20 00:23:39;;;;;;;5.10;4.22;;;;;;;;;;4958809;28;20034;-85
2021/09/20 00:26:04;;;;;;;5.05;4.32;;;;;;;;;;4960390;28;20031;-85
2021/09/20 00:28:30;;;;;;;5.82;3.85;;;;;;;;;;4977125;28;20153;-84
2021/09/20 00:30:55;;;;;;;5.40;4.45;;;;;;;;;;4976026;28;20137;-85
2021/09/20 00:33:20;;;;;;;5.78;4.10;;;;;;;;;;4991745;28;20026;-85
2021/09/20 00:35:46;;;;;;;4.25;3.88;;;;;;;;;;4977038;28;20080;-84
2021/09/20 00:38:11;;;;;;;4.45;4.03;;;;;;;;;;4977496;28;20038;-84
2021/09/20 00:40:36;;;;;;;4.65;4.22;;;;;;;;;;4960364;28;20067;-84
2021/09/20 00:43:02;;;;;;;4.47;4.00;;;;;;;;;;5007640;28;20125;-85
2021/09/20 00:45:28;;;;;;;4.18;3.80;;;;;;;;;;4976968;28;20031;-85
2021/09/20 00:47:53;;;;;;;4.70;4.30;;;;;;;;;;4974786;28;20099;-85
2021/09/20 00:50:18;;;;;;;5.25;4.45;;;;;;;;;;4977644;28;20022;-85
2021/09/20 00:52:44;;;;;;;5.15;3.90;;;;;;;;;;4977183;28;20037;-85
2021/09/20 00:55:11;;;;;;;5.88;4.18;;;;;;;;;;4977793;28;20034;-86
2021/09/20 00:57:37;;;;;;;5.15;4.50;;;;;;;;;;4977792;28;20079;-85
2021/09/20 01:00:03;;;;;;;4.75;4.28;;;;;;;;;;5008348;28;20066;-84
2021/09/20 01:02:29;;;;;;;5.15;4.65;;;;;;;;;;4977123;28;20064;-84
2021/09/20 01:04:54;;;;;;;5.38;4.85;;;;;;;;;;4977759;28;20062;-85
2021/09/20 01:07:19;;;;;;;5.20;4.70;;;;;;;;;;4960932;28;20018;-85
2021/09/20 01:09:45;;;;;;;5.63;4.57;;;;;;;;;;4961126;28;20279;-85
2021/09/20 01:12:11;;;;;;;5.60;4.32;;;;;;;;;;4977265;28;20022;-86
2021/09/20 01:14:37;;;;;;;5.35;4.78;;;;;;;;;;4969223;28;20026;-84
2021/09/20 01:17:02;;;;;;;5.07;4.57;;;;;;;;;;4975492;28;20507;-86
2021/09/20 01:19:28;;;;;;;4.55;4.15;;;;;;;;;;4965534;28;20027;-86
2021/09/20 01:21:55;;;;;;;6.05;4.57;;;;;;;;;;4973922;28;20038;-85
2021/09/20 01:24:20;;;;;;;5.50;5.00;;;;;;;;;;4977595;28;20014;-86
2021/09/20 01:26:45;;;;;;;6.30;4.93;;;;;;;;;;4961752;28;20034;-86
2021/09/20 01:29:11;;;;;;;5.47;4.68;;;;;;;;;;4977561;28;20054;-85
2021/09/20 01:31:36;;;;;;;4.75;4.20;;;;;;;;;;4976850;28;20034;-86
2021/09/20 01:34:02;;;;;;;6.53;5.05;;;;;;;;;;5005218;28;20036;-86
2021/09/20 01:36:27;;;;;;;4.95;4.45;;;;;;;;;;4960912;28;20037;-85
2021/09/20 01:38:52;;;;;;;5.18;4.78;;;;;;;;;;5009456;28;20022;-86
2021/09/20 01:41:17;;;;;;;5.88;4.78;;;;;;;;;;4975598;28;20030;-87
2021/09/20 01:43:43;;;;;;;7.57;4.70;;;;;;;;;;4969505;28;20023;-86
2021/09/20 01:46:08;;;;;;;5.07;4.40;;;;;;;;;;4960652;28;20046;-86
2021/09/20 01:48:33;;;;;;;5.90;4.50;;;;;;;;;;4976006;28;20034;-86
2021/09/20 01:50:58;;;;;;;5.63;5.07;;;;;;;;;;4988548;28;20045;-87
2021/09/20 01:53:24;;;;;;;5.63;4.63;;;;;;;;;;4963495;28;20015;-87
2021/09/20 01:55:49;;;;;;;7.72;4.72;;;;;;;;;;4994203;28;20025;-87
2021/09/20 01:58:14;;;;;;;6.15;4.60;;;;;;;;;;5009369;28;20029;-87
2021/09/20 02:00:43;;;;;;;5.53;4.93;;;;;;;;;;4993037;28;20018;-86
2021/09/20 02:03:09;;;;;;;5.35;4.75;;;;;;;;;;4995057;28;20512;-86
2021/09/20 02:05:34;;;;;;;7.95;5.15;;;;;;;;;;4969740;28;20045;-86
2021/09/20 02:07:59;;;;;;;5.30;4.80;;;;;;;;;;4989052;28;20023;-84
2021/09/20 02:10:24;;;;;;;5.43;4.93;;;;;;;;;;4979547;28;20058;-86
2021/09/20 02:12:49;;;;;;;5.63;5.13;;;;;;;;;;4976311;28;20114;-86
2021/09/20 02:15:15;;;;;;;5.38;4.65;;;;;;;;;;4992333;28;20045;-86
2021/09/20 02:17:40;;;;;;;5.80;5.13;;;;;;;;;;4976504;28;20381;-85
2021/09/20 02:20:05;;;;;;;5.70;4.95;;;;;;;;;;4956414;28;20126;-85
2021/09/20 02:22:34;;;;;;;5.45;4.95;;;;;;;;;;4969624;28;20106;-86
2021/09/20 02:24:59;;;;;;;6.78;5.70;;;;;;;;;;4975095;28;20137;-85
2021/09/20 02:27:24;;;;;;;5.75;5.07;;;;;;;;;;4960159;28;20121;-85
2021/09/20 02:29:50;;;;;;;5.05;4.65;;;;;;;;;;4991773;28;20054;-85
2021/09/20 02:32:15;;;;;;;6.40;5.32;;;;;;;;;;4974953;28;20026;-86
2021/09/20 02:34:40;;;;;;;5.40;4.90;;;;;;;;;;4993020;28;20026;-87
2021/09/20 02:37:05;;;;;;;5.20;4.70;;;;;;;;;;4993231;28;20026;-87
2021/09/20 02:39:31;;;;;;;5.90;5.28;;;;;;;;;;4960021;28;20011;-86
2021/09/20 02:41:56;;;;;;;6.25;4.65;;;;;;;;;;4992564;28;20022;-86
2021/09/20 02:44:21;;;;;;;5.75;5.25;;;;;;;;;;4987759;28;20026;-86
2021/09/20 02:46:48;;;;;;;5.03;4.57;;;;;;;;;;4956833;28;20058;-89
2021/09/20 02:49:14;;;;;;;5.97;5.10;;;;;;;;;;4993851;28;20030;-84
2021/09/20 02:51:39;;;;;;;6.13;5.25;;;;;;;;;;4995088;28;20549;-89
2021/09/20 02:54:04;;;;;;;5.75;5.25;;;;;;;;;;4991433;28;20035;-93
2021/09/20 02:56:29;;;;;;;6.03;5.03;;;;;;;;;;4983909;28;20027;-92
2021/09/20 02:58:54;;;;;;;5.60;5.03;;;;;;;;;;4984393;28;20014;-91
2021/09/20 03:01:20;;;;;;;5.78;5.03;;;;;;;;;;4982031;28;20022;-92
2021/09/20 03:03:45;;;;;;;5.47;4.95;;;;;;;;;;4998915;28;20027;-94
2021/09/20 03:06:10;;;;;;;5.38;4.88;;;;;;;;;;4993682;28;20034;-87
2021/09/20 03:08:35;;;;;;;6.28;5.57;;;;;;;;;;4947483;28;20038;-90
2021/09/20 03:11:01;;;;;;;6.72;5.80;;;;;;;;;;4979185;28;20065;-92
2021/09/20 03:13:26;;;;;;;6.45;5.55;;;;;;;;;;4970126;28;20022;-91
2021/09/20 03:15:51;;;;;;;6.90;6.20;;;;;;;;;;4986345;28;20031;-90
2021/09/20 03:18:16;;;;;;;5.80;5.18;;;;;;;;;;4990850;28;20058;-88
2021/09/20 03:20:42;;;;;;;7.40;5.85;;;;;;;;;;5009749;28;20037;-89
2021/09/20 03:23:07;;;;;;;6.20;5.57;;;;;;;;;;4975600;28;20073;-92
2021/09/20 03:25:32;;;;;;;6.05;5.45;;;;;;;;;;4963598;28;20502;-93
2021/09/20 03:27:57;;;;;;;8.27;5.72;;;;;;;;;;4980437;28;20219;-93
2021/09/20 03:30:23;;;;;;;6.57;5.82;;;;;;;;;;4983963;28;20031;-94
2021/09/20 03:32:48;;;;;;;6.85;5.70;;;;;;;;;;4985949;28;20037;-94
2021/09/20 03:35:14;;;;;;;6.10;5.50;;;;;;;;;;5013247;28;20038;-94
2021/09/20 03:37:40;;;;;;;6.80;6.00;;;;;;;;;;4978539;28;20022;-91
2021/09/20 03:40:06;;;;;;;7.45;6.10;;;;;;;;;;4998036;28;20588;-94
2021/09/20 03:42:31;;;;;;;6.60;5.63;;;;;;;;;;4979788;28;20019;-91
2021/09/20 03:44:56;;;;;;;7.82;6.60;;;;;;;;;;5011298;28;20098;-92
2021/09/20 03:47:22;;;;;;;7.22;5.75;;;;;;;;;;5008969;28;20042;-95
2021/09/20 03:49:47;;;;;;;7.30;6.22;;;;;;;;;;5006146;23;20456;-67
2021/09/20 03:52:12;;;;;;;7.30;6.03;;;;;;;;;;4986602;28;20121;-69
2021/09/20 03:54:37;;;;;;;7.43;6.55;;;;;;;;;;4991403;28;20042;-67
2021/09/20 03:57:02;;;;;;;6.63;5.93;;;;;;;;;;4992115;28;20157;-67
2021/09/20 03:59:29;;;;;;;7.80;5.68;;;;;;;;;;4991996;28;20037;-67
2021/09/20 04:01:56;;;;;;;7.43;6.40;;;;;;;;;;4989430;28;20101;-66
2021/09/20 04:04:21;;;;;;;7.55;6.65;;;;;;;;;;4992124;28;20107;-67
2021/09/20 04:06:46;;;;;;;8.05;6.63;;;;;;;;;;4991933;28;20022;-67
2021/09/20 04:09:11;;;;;;;6.85;6.15;;;;;;;;;;4991875;28;20033;-67
2021/09/20 04:11:40;;;;;;;7.57;6.47;;;;;;;;;;4992126;28;20015;-67
2021/09/20 04:14:05;;;;;;;8.82;6.35;;;;;;;;;;4982818;28;20400;-67
2021/09/20 04:16:30;;;;;;;7.38;6.63;;;;;;;;;;4961003;28;20029;-67
2021/09/20 04:18:56;;;;;;;7.82;6.70;;;;;;;;;;4985971;28;20065;-65
2021/09/20 04:21:21;;;;;;;8.02;6.53;;;;;;;;;;4989350;28;20036;-66
2021/09/20 04:23:46;;;;;;;7.88;6.80;;;;;;;;;;4980827;28;20030;-66
2021/09/20 04:26:12;;;;;;;7.28;6.53;;;;;;;;;;4972589;28;20027;-67
2021/09/20 04:28:37;;;;;;;7.78;6.82;;;;;;;;;;4990850;28;20025;-67
2021/09/20 04:31:02;;;;;;;7.28;6.43;;;;;;;;;;5000944;28;20112;-67
2021/09/20 04:33:27;;;;;;;8.13;6.72;;;;;;;;;;4992054;28;20097;-67
2021/09/20 04:35:52;;;;;;;8.10;6.85;;;;;;;;;;4987586;28;20378;-67
2021/09/20 04:38:18;;;;;;;8.00;6.72;;;;;;;;;;4990933;28;20488;-67
2021/09/20 04:40:43;;;;;;;8.98;6.43;;;;;;;;;;4991538;28;20042;-67
2021/09/20 04:43:09;;;;;;;8.40;7.60;;;;;;;;;;4987681;28;20413;-67
2021/09/20 04:45:35;;;;;;;8.25;6.63;;;;;;;;;;4990638;28;20121;-67
2021/09/20 04:48:00;;;;;;;8.10;7.07;;;;;;;;;;4973165;28;20113;-67
2021/09/20 04:50:25;;;;;;;8.40;6.97;;;;;;;;;;4981122;28;20051;-67
2021/09/20 04:52:50;;;;;;;9.55;7.32;;;;;;;;;;4971811;28;20027;-67
2021/09/20 04:55:15;;;;;;;7.40;6.35;;;;;;;;;;4971649;28;20058;-67
2021/09/20 04:57:41;;;;;;;9.90;6.85;;;;;;;;;;4975457;28;20364;-67
2021/09/20 05:00:07;;;;;;;8.35;7.45;;;;;;;;;;4956095;28;20037;-64
2021/09/20 05:02:32;;;;;;;8.63;7.82;;;;;;;;;;4977112;28;20026;-67
2021/09/20 05:04:57;;;;;;;8.48;7.68;;;;;;;;;;4977157;28;20023;-67
2021/09/20 05:07:23;;;;;;;14.63;7.47;;;;;;;;;;4977295;28;20470;-67
2021/09/20 05:09:48;;;;;;;9.32;7.45;;;;;;;;;;4979258;28;20026;-66
2021/09/20 05:12:13;;;;;;;8.50;7.68;;;;;;;;;;4976497;28;20103;-66
2021/09/20 05:14:38;;;;;;;7.97;7.18;;;;;;;;;;4958522;28;20118;-66
2021/09/20 05:17:05;;;;;;;8.20;7.30;;;;;;;;;;4973311;28;20023;-65
2021/09/20 05:19:33;;;;;;;9.15;7.18;;;;;;;;;;4955771;28;20015;-65
2021/09/20 05:21:58;;;;;;;10.20;7.63;;;;;;;;;;4973601;28;20027;-65
2021/09/20 05:24:26;;;;;;;10.30;7.68;;;;;;;;;;4974208;28;20394;-65
2021/09/20 05:26:51;;;;;;;7.88;7.05;;;;;;;;;;4975025;28;20035;-65
2021/09/20 05:29:16;;;;;;;8.63;7.28;;;;;;;;;;4975196;28;20074;-66
2021/09/20 05:31:41;;;;;;;12.70;8.27;;;;;;;;;;4963597;28;20534;-66
2021/09/20 05:34:07;;;;;;;10.13;7.50;;;;;;;;;;4976293;28;20029;-66
2021/09/20 05:36:32;;;;;;;7.82;7.07;;;;;;;;;;4982852;28;20030;-66
2021/09/20 05:38:57;;;;;;;7.97;7.22;;;;;;;;;;4974857;28;20450;-66
2021/09/20 05:41:22;;;;;;;7.43;6.57;;;;;;;;;;4974212;28;20049;-66
2021/09/20 05:43:47;;;;;;;8.65;7.53;;;;;;;;;;4967002;28;20356;-64
2021/09/20 05:46:13;;;;;;;9.75;7.97;;;;;;;;;;4960749;28;20058;-66
2021/09/20 05:48:39;;;;;;;7.45;6.65;;;;;;;;;;4966655;28;20033;-65
2021/09/20 05:51:04;;;;;;;9.75;7.18;;;;;;;;;;4962719;28;20050;-66
2021/09/20 05:53:29;;;;;;;8.23;7.30;;;;;;;;;;4973175;28;20393;-65
2021/09/20 05:55:54;;;;;;;9.50;8.57;;;;;;;;;;4956331;28;20082;-66
2021/09/20 05:58:20;;;;;;;9.77;8.75;;;;;;;;;;4974339;28;20368;-66
2021/09/20 06:00:45;;;;;;;9.77;8.18;;;;;;;;;;4956793;28;20355;-65
2021/09/20 06:03:11;;;;;;;8.90;8.02;;;;;;;;;;4959831;28;20023;-66
2021/09/20 06:05:38;;;;;;;9.25;8.05;;;;;;;;;;4984871;28;20046;-66
2021/09/20 06:08:04;;;;;;;10.95;9.02;;;;;;;;;;4981122;28;20022;-66
2021/09/20 06:10:29;;;;;;;11.65;9.02;;;;;;;;;;4980462;28;20026;-65
2021/09/20 06:12:54;;;;;;;11.57;8.48;;;;;;;;;;4968937;28;20030;-66
2021/09/20 06:15:19;;;;;;;10.50;8.13;;;;;;;;;;4943843;28;20018;-65
2021/09/20 06:17:45;;;;;;;9.30;7.15;;;;;;;;;;4973811;28;20027;-66
2021/09/20 06:20:10;;;;;;;9.35;6.75;;;;;;;;;;4974228;28;20055;-66
2021/09/20 06:22:35;;;;;;;8.00;7.15;;;;;;;;;;4967971;28;20139;-65
2021/09/20 06:25:01;;;;;;;8.18;6.65;;;;;;;;;;4973731;28;20059;-65
2021/09/20 06:27:27;;;;;;;7.97;6.75;;;;;;;;;;4984776;28;20030;-66
2021/09/20 06:29:52;;;;;;;8.13;6.45;;;;;;;;;;4992157;28;20023;-66
2021/09/20 06:32:17;;;;;;;7.05;5.95;;;;;;;;;;4991331;28;20037;-66
2021/09/20 06:34:42;;;;;;;9.07;6.68;;;;;;;;;;4962449;28;20386;-66
2021/09/20 06:37:08;;;;;;;8.85;7.95;;;;;;;;;;4988725;28;20493;-61
2021/09/20 06:39:33;;;;;;;9.13;6.32;;;;;;;;;;4973636;28;20390;-67
2021/09/20 06:41:58;;;;;;;8.25;6.13;;;;;;;;;;4979384;28;20394;-67
2021/09/20 06:44:24;;;;;;;7.88;6.10;;;;;;;;;;4972141;28;20027;-66
2021/09/20 06:46:49;;;;;;;7.70;6.68;;;;;;;;;;4957496;28;20039;-66
2021/09/20 06:49:15;;;;;;;10.50;7.32;;;;;;;;;;4971596;28;20066;-67
2021/09/20 06:51:40;;;;;;;12.18;7.57;;;;;;;;;;4973189;28;20033;-67
2021/09/20 06:54:05;;;;;;;13.85;7.57;;;;;;;;;;4972553;28;20033;-67
2021/09/20 06:56:30;;;;;;;9.35;7.70;;;;;;;;;;4988952;28;20480;-67
2021/09/20 06:58:56;;;;;;;12.00;7.55;;;;;;;;;;4981699;28;20072;-67
2021/09/20 07:01:21;;;;;;;13.02;7.22;;;;;;;;;;4980028;28;20076;-65
2021/09/20 07:03:46;;;;;;;12.32;6.93;;;;;;;;;;4973480;28;20034;-67
2021/09/20 07:06:12;;;;;;;11.48;6.78;;;;;;;;;;4975683;28;20031;-67
2021/09/20 07:08:37;;;;;;;10.13;7.35;;;;;;;;;;4991360;28;20478;-67
2021/09/20 07:11:02;;;;;;;9.43;6.25;;;;;;;;;;4989785;28;20426;-67
2021/09/20 07:13:28;;;;;;;7.68;5.32;;;;;;;;;;4950125;28;20023;-67
2021/09/20 07:15:53;;;;;;;7.80;4.72;;;;;;;;;;4973059;28;20023;-66
2021/09/20 07:18:18;;;;;;;7.43;5.28;;;;;;;;;;4972003;28;20078;-67
2021/09/20 07:20:44;;;;;;;7.05;5.50;;;;;;;;;;4973130;28;20031;-67
2021/09/20 07:23:10;;;;;;;5.35;4.65;;;;;;;;;;4974641;28;20550;-66
2021/09/20 07:25:35;;;;;;;6.32;5.15;;;;;;;;;;4973160;28;20107;-67
2021/09/20 07:28:00;;;;;;;8.38;5.65;;;;;;;;;;4962689;28;20372;-66
2021/09/20 07:30:26;;;;;;;6.53;5.60;;;;;;;;;;4955135;28;20119;-67
2021/09/20 07:32:51;;;;;;;6.90;5.63;;;;;;;;;;4972440;28;20015;-66
2021/09/20 07:35:17;;;;;;;6.53;5.25;;;;;;;;;;4972996;28;20026;-67
2021/09/20 07:37:47;;;;;;;5.20;4.70;;;;;;;;;;4971796;28;20027;-66
2021/09/20 07:40:12;;;;;;;7.30;5.25;;;;;;;;;;4979666;28;20106;-66
2021/09/20 07:42:37;;;;;;;7.35;5.25;;;;;;;;;;4987819;28;20026;-66
2021/09/20 07:45:03;;;;;;;5.65;5.15;;;;;;;;;;4966316;28;20023;-67
2021/09/20 07:47:28;;;;;;;6.15;4.70;;;;;;;;;;4953558;28;20020;-67
2021/09/20 07:49:53;;;;;;;5.22;4.35;;;;;;;;;;4983588;28;20515;-67
2021/09/20 07:52:19;;;;;;;5.13;4.65;;;;;;;;;;4995084;28;20019;-66
2021/09/20 07:54:44;;;;;;;9.27;5.40;;;;;;;;;;4984516;28;20027;-66
2021/09/20 07:57:10;;;;;;;5.47;4.97;;;;;;;;;;4991814;28;20487;-67
2021/09/20 07:59:35;;;;;;;7.65;6.00;;;;;;;;;;4999121;28;20057;-67
2021/09/20 08:02:00;;;;;;;6.50;5.72;;;;;;;;;;4995980;28;20117;-67
2021/09/20 08:04:25;;;;;;;6.40;5.80;;;;;;;;;;4992686;28;20465;-67
2021/09/20 08:06:50;;;;;;;12.80;6.00;;;;;;;;;;4985928;28;20026;-67
2021/09/20 08:09:16;;;;;;;6.75;5.90;;;;;;;;;;4990177;28;20470;-67
2021/09/20 08:11:41;;;;;;;7.82;5.88;;;;;;;;;;4993232;28;20394;-61
2021/09/20 08:14:06;;;;;;;6.90;6.20;;;;;;;;;;4986744;28;20042;-67
2021/09/20 08:16:31;;;;;;;6.80;6.13;;;;;;;;;;5009248;28;20160;-67
2021/09/20 08:18:56;;;;;;;7.20;6.50;;;;;;;;;;4995628;28;20080;-67
2021/09/20 08:21:22;;;;;;;7.53;6.82;;;;;;;;;;4984589;28;20068;-68
2021/09/20 08:23:47;;;;;;;6.80;6.20;;;;;;;;;;4992517;28;20022;-67
2021/09/20 08:26:12;;;;;;;7.22;6.53;;;;;;;;;;4970830;28;20091;-66
2021/09/20 08:28:37;;;;;;;7.57;6.88;;;;;;;;;;4990634;28;20026;-67
2021/09/20 08:31:02;;;;;;;6.35;5.25;;;;;;;;;;5001579;28;20038;-66
2021/09/20 08:33:29;;;;;;;5.97;5.47;;;;;;;;;;5015566;28;20081;-67
2021/09/20 08:35:54;;;;;;;7.57;6.03;;;;;;;;;;5002458;28;20057;-68
2021/09/20 08:38:19;;;;;;;5.65;5.13;;;;;;;;;;4995160;28;20445;-67
2021/09/20 08:40:45;;;;;;;8.05;4.57;;;;;;;;;;4995569;28;20481;-67
2021/09/20 08:43:10;;;;;;;4.80;4.32;;;;;;;;;;4973737;28;20509;-67
2021/09/20 08:45:35;;;;;;;5.40;4.60;;;;;;;;;;4998049;28;20386;-67
2021/09/20 08:48:01;;;;;;;7.50;4.63;;;;;;;;;;4979360;28;20474;-67
2021/09/20 08:50:28;;;;;;;4.70;4.30;;;;;;;;;;5014843;28;20057;-67
2021/09/20 08:52:53;;;;;;;5.40;4.90;;;;;;;;;;5006445;28;20025;-67
2021/09/20 08:55:18;;;;;;;5.68;4.72;;;;;;;;;;4958812;28;20488;-67
2021/09/20 08:57:44;;;;;;;4.82;4.05;;;;;;;;;;4994595;28;20433;-67
2021/09/20 09:00:10;;;;;;;5.93;4.15;;;;;;;;;;4995048;28;20385;-67
2021/09/20 09:02:35;;;;;;;4.95;4.22;;;;;;;;;;4994855;28;20022;-67
2021/09/20 09:05:19;;;;;;;5.13;4.15;;;;;;;;;;4995813;28;20549;-67
2021/09/20 09:08:05;;;;;;;4.55;3.50;;;;;;;;;;4993759;28;20022;-65
2021/09/20 09:10:31;;;;;;;4.20;3.78;;;;;;;;;;4991789;28;20512;-66
2021/09/20 09:12:57;;;;;;;4.55;4.07;;;;;;;;;;4979498;28;20422;-66
2021/09/20 09:15:24;;;;;;;4.60;4.15;;;;;;;;;;4989816;28;20145;-66
2021/09/20 09:17:50;;;;;;;4.05;3.40;;;;;;;;;;4994880;28;20066;-66
2021/09/20 09:20:19;;;;;;;4.60;3.42;;;;;;;;;;4995161;28;20030;-66
2021/09/20 09:22:49;;;;;;;2.92;2.15;;;;;;;;;;4998189;28;20026;-66
2021/09/20 09:25:14;;;;;;;3.15;2.55;;;;;;;;;;5013160;28;20014;-66
2021/09/20 09:27:40;;;;;;;2.85;2.20;;;;;;;;;;5004191;28;20030;-67
2021/09/20 09:30:10;;;;;;;2.65;2.13;;;;;;;;;;4994135;28;20026;-68
2021/09/20 09:32:35;;;;;;;2.00;1.90;;;;;;;;;;4993327;28;20030;-68
2021/09/20 09:35:03;;;;;;;2.63;1.77;;;;;;;;;;4991596;28;20033;-67
2021/09/20 09:37:29;;;;;;;4.20;2.50;;;;;;;;;;4996583;28;20021;-66
2021/09/20 09:40:11;;;;;;;2.00;1.80;;;;;;;;;;5011135;28;20029;-67
2021/09/20 09:42:37;;;;;;;3.20;1.60;;;;;;;;;;4985423;28;20037;-66
2021/09/20 09:45:21;;;;;;;2.30;1.27;;;;;;;;;;4982915;28;20022;-66
2021/09/20 09:47:48;;;;;;;2.28;1.77;;;;;;;;;;5013387;28;20022;-68
2021/09/20 09:50:14;;;;;;;1.92;1.30;;;;;;;;;;4992999;28;20495;-68
2021/09/20 09:52:39;;;;;;;1.10;1.00;;;;;;;;;;5003708;28;20722;-67
2021/09/20 09:55:06;;;;;;;1.27;0.95;;;;;;;;;;4983777;28;20014;-67
2021/09/20 09:57:32;;;;;;;1.80;1.10;;;;;;;;;;4966793;28;20022;-67
2021/09/20 10:00:02;;;;;;;1.35;0.85;;;;;;;;;;4993762;28;20018;-65
2021/09/20 10:02:30;;;;;;;1.90;1.15;;;;;;;;;;4989470;28;20022;-67
2021/09/20 10:05:21;;;;;;;2.25;1.10;;;;;;;;;;4985119;28;20023;-67
2021/09/20 10:07:48;;;;;;;1.90;1.20;;;;;;;;;;4988934;28;20041;-67
2021/09/20 10:10:14;;;;;;;1.30;1.10;;;;;;;;;;5001973;28;20507;-67
2021/09/20 10:12:40;;;;;;;1.98;1.50;;;;;;;;;;4990508;28;20028;-67
2021/09/20 10:15:06;;;;;;;1.70;1.38;;;;;;;;;;4991055;28;20376;-67
2021/09/20 10:17:32;;;;;;;2.65;1.35;;;;;;;;;;5000273;28;20101;-66
2021/09/20 10:19:58;;;;;;;1.98;1.55;;;;;;;;;;4992332;28;20490;-67
2021/09/20 10:22:23;;;;;;;1.80;1.70;;;;;;;;;;5006703;28;20018;-67
2021/09/20 10:24:51;;;;;;;1.65;1.55;;;;;;;;;;4974717;28;20073;-66
2021/09/20 10:27:17;;;;;;;2.33;1.38;;;;;;;;;;5003794;28;20029;-67
2021/09/20 10:29:48;;;;;;;2.63;1.30;;;;;;;;;;4979049;28;20109;-66
2021/09/20 10:32:14;;;;;;;1.60;1.50;;;;;;;;;;5010974;28;20095;-67
2021/09/20 10:34:39;;;;;;;1.33;1.20;;;;;;;;;;4984978;28;20421;-68
2021/09/20 10:37:06;;;;;;;2.75;1.70;;;;;;;;;;4992782;28;20053;-66
2021/09/20 10:39:48;;;;;;;4.45;1.85;;;;;;;;;;4974948;28;20439;-65
2021/09/20 10:42:32;;;;;;;3.38;2.30;;;;;;;;;;4998763;28;20023;-66
2021/09/20 10:44:57;;;;;;;2.67;1.70;;;;;;;;;;4986884;28;20102;-65
2021/09/20 10:47:24;;;;;;;1.67;1.58;;;;;;;;;;4986775;28;20122;-65
2021/09/20 10:49:49;;;;;;;2.15;1.90;;;;;;;;;;4973622;28;20529;-66
2021/09/20 10:52:15;;;;;;;1.90;1.80;;;;;;;;;;4984148;28;20105;-66
2021/09/20 10:55:00;;;;;;;3.45;1.85;;;;;;;;;;4974286;28;20026;-67
2021/09/20 10:57:25;;;;;;;3.20;1.92;;;;;;;;;;4993687;28;20501;-66
2021/09/20 10:59:50;;;;;;;2.22;1.70;;;;;;;;;;5012809;28;20026;-66
2021/09/20 11:02:17;;;;;;;2.75;1.73;;;;;;;;;;4992982;28;20089;-66
2021/09/20 11:04:43;;;;;;;1.65;1.40;;;;;;;;;;5008898;28;20033;-64
2021/09/20 11:07:19;;;;;;;3.80;1.30;;;;;;;;;;4994278;28;20029;-65
2021/09/20 11:09:46;;;;;;;1.65;1.35;;;;;;;;;;4994312;28;20081;-66
2021/09/20 11:12:19;;;;;;;1.30;1.15;;;;;;;;;;4993610;28;20549;-66
2021/09/20 11:14:49;;;;;;;1.63;1.08;;;;;;;;;;4988979;28;20541;-65
2021/09/20 11:17:19;;;;;;;1.88;1.25;;;;;;;;;;4989952;28;20026;-65
2021/09/20 11:19:45;;;;;;;2.40;0.98;;;;;;;;;;4978677;28;20057;-65
2021/09/20 11:22:16;;;;;;;1.73;0.98;;;;;;;;;;4985752;28;20034;-64
2021/09/20 11:24:47;;;;;;;2.42;1.05;;;;;;;;;;5002528;28;20019;-65
2021/09/20 11:27:14;;;;;;;1.40;0.85;;;;;;;;;;4999384;28;20092;-65
2021/09/20 11:29:39;;;;;;;3.53;0.90;;;;;;;;;;4992725;28;20269;-66
2021/09/20 11:32:05;;;;;;;1.48;0.88;;;;;;;;;;4991821;28;20090;-66
2021/09/20 11:34:32;;;;;;;1.75;1.00;;;;;;;;;;4996686;28;20030;-66
2021/09/20 11:37:09;;;;;;;1.23;0.90;;;;;;;;;;5008506;28;20025;-67
2021/09/20 11:39:54;;;;;;;2.78;1.45;;;;;;;;;;5011415;28;20022;-67
2021/09/20 11:42:20;;;;;;;1.75;1.13;;;;;;;;;;5011752;28;20014;-67
2021/09/20 11:44:51;;;;;;;1.98;1.00;;;;;;;;;;4991370;28;20030;-67
2021/09/20 11:47:17;;;;;;;2.17;0.93;;;;;;;;;;4997928;28;20098;-67
2021/09/20 11:49:43;;;;;;;1.23;1.00;;;;;;;;;;4981893;28;20618;-67
2021/09/20 11:52:08;;;;;;;1.80;1.13;;;;;;;;;;4992576;28;20109;-67
2021/09/20 11:54:35;;;;;;;1.67;1.13;;;;;;;;;;4971140;28;20015;-67
2021/09/20 11:57:10;;;;;;;1.85;1.10;;;;;;;;;;4991828;28;20030;-66
2021/09/20 11:59:35;;;;;;;1.42;0.90;;;;;;;;;;4973074;28;20102;-67
2021/09/20 12:02:01;;;;;;;4.25;0.70;;;;;;;;;;4990334;28;20109;-65
2021/09/20 12:04:43;;;;;;;1.75;0.75;;;;;;;;;;4992495;28;20030;-66
2021/09/20 12:07:08;;;;;;;1.60;0.70;;;;;;;;;;4992073;28;20057;-66
2021/09/20 12:09:35;;;;;;;2.08;0.90;;;;;;;;;;4999312;28;20058;-66
2021/09/20 12:12:04;;;;;;;2.17;1.20;;;;;;;;;;4998777;28;20014;-65
2021/09/20 12:14:30;;;;;;;2.25;1.15;;;;;;;;;;4989336;28;20109;-66
2021/09/20 12:16:58;;;;;;;1.77;1.30;;;;;;;;;;5007600;28;20100;-65
2021/09/20 12:19:23;;;;;;;1.23;1.10;;;;;;;;;;4997805;28;20114;-65
2021/09/20 12:21:58;;;;;;;1.30;1.20;;;;;;;;;;5007667;28;20111;-66
2021/09/20 12:24:23;;;;;;;6.20;1.73;;;;;;;;;;4995242;28;20482;-64
2021/09/20 12:26:48;;;;;;;1.30;1.20;;;;;;;;;;5001853;28;20089;-65
2021/09/20 12:29:13;;;;;;;1.65;1.20;;;;;;;;;;4995743;28;20387;-65
2021/09/20 12:31:40;;;;;;;2.70;1.45;;;;;;;;;;5010639;28;20501;-66
2021/09/20 12:34:10;;;;;;;2.00;1.85;;;;;;;;;;4997363;28;20027;-66
2021/09/20 12:36:36;;;;;;;2.50;2.30;;;;;;;;;;4994672;28;20501;-66
2021/09/20 12:39:24;;;;;;;1.50;1.15;;;;;;;;;;5013216;28;20017;-66
2021/09/20 12:42:01;;;;;;;1.20;1.10;;;;;;;;;;4956628;29;20091;-66
2021/09/20 12:44:28;;;;;;;2.03;1.35;;;;;;;;;;4991750;28;20021;-66
2021/09/20 12:47:03;;;;;;;2.22;1.10;;;;;;;;;;5013917;28;20026;-66
2021/09/20 12:49:29;;;;;;;0.85;0.80;;;;;;;;;;4978385;28;20058;-69
2021/09/20 12:51:54;;;;;;;1.70;1.10;;;;;;;;;;5001010;28;20080;-66
2021/09/20 12:54:24;;;;;;;1.10;0.98;;;;;;;;;;5009839;28;20454;-66
2021/09/20 12:56:50;;;;;;;3.05;1.15;;;;;;;;;;4987393;28;20466;-65
2021/09/20 12:59:36;;;;;;;0.85;0.80;;;;;;;;;;4993688;28;20026;-66
2021/09/20 13:02:01;;;;;;;;;;;;;;;;;;4993352;28;20105;-66
2021/09/20 13:04:33;;;;;;;2.53;0.70;;;;;;;;;;4994975;28;19960;-66
2021/09/20 13:07:07;;;;;;;1.13;0.90;;;;;;;;;;4987989;28;20603;-66
2021/09/20 13:09:33;;;;;;;1.00;0.85;;;;;;;;;;4997346;28;20023;-65
2021/09/20 13:12:03;;;;;;;2.40;1.08;;;;;;;;;;4977048;28;20026;-65
2021/09/20 13:14:30;;;;;;;2.83;0.88;;;;;;;;;;4990407;28;20101;-65
2021/09/20 13:16:55;;;;;;;2.15;0.82;;;;;;;;;;4998984;28;20026;-67
2021/09/20 13:19:21;;;;;;;1.10;0.90;;;;;;;;;;4981158;28;20438;-67
2021/09/20 13:21:59;;;;;;;2.00;1.15;;;;;;;;;;4994095;28;20371;-68
2021/09/20 13:24:32;;;;;;;1.95;1.20;;;;;;;;;;4997539;28;20478;-67
2021/09/20 13:26:57;;;;;;;1.95;1.17;;;;;;;;;;4994220;28;20071;-67
2021/09/20 13:29:23;;;;;;;2.60;1.02;;;;;;;;;;4997500;28;20050;-67
2021/09/20 13:31:48;;;;;;;1.38;1.13;;;;;;;;;;4998147;28;20386;-67
2021/09/20 13:34:13;;;;;;;1.73;1.60;;;;;;;;;;4994181;28;20076;-66
2021/09/20 13:36:38;;;;;;;3.03;1.20;;;;;;;;;;4996502;28;20637;-67
2021/09/20 13:39:03;;;;;;;3.38;1.50;;;;;;;;;;5013438;28;20501;-67
2021/09/20 13:41:29;;;;;;;2.47;1.35;;;;;;;;;;4994027;28;20406;-66
2021/09/20 13:43:54;;;;;;;1.53;1.43;;;;;;;;;;4997182;28;20117;-66
2021/09/20 13:46:23;;;;;;;1.95;1.75;;;;;;;;;;4994509;28;20274;-66
2021/09/20 13:48:50;;;;;;;2.80;1.80;;;;;;;;;;4994277;28;20030;-67
2021/09/20 13:51:15;;;;;;;1.40;1.30;;;;;;;;;;4996944;28;20121;-67
2021/09/20 13:53:40;;;;;;;1.70;1.50;;;;;;;;;;4995449;28;20158;-67
2021/09/20 13:56:06;;;;;;;2.53;1.85;;;;;;;;;;4985665;28;20026;-66
2021/09/20 13:58:31;;;;;;;1.92;1.70;;;;;;;;;;4976782;28;20477;-66
2021/09/20 14:00:57;;;;;;;2.25;1.40;;;;;;;;;;4994487;28;20023;-66
2021/09/20 14:03:22;;;;;;;2.15;1.42;;;;;;;;;;4976139;28;20030;-66
2021/09/20 14:05:50;;;;;;;3.40;2.25;;;;;;;;;;4993941;28;20029;-66
2021/09/20 14:08:15;;;;;;;2.22;1.85;;;;;;;;;;4992993;28;20049;-66
2021/09/20 14:10:42;;;;;;;1.88;1.73;;;;;;;;;;4993205;28;20070;-66
2021/09/20 14:13:07;;;;;;;3.38;1.70;;;;;;;;;;4987868;28;20027;-66
2021/09/20 14:15:32;;;;;;;2.33;1.50;;;;;;;;;;4970110;28;20026;-66
2021/09/20 14:17:58;;;;;;;2.60;2.00;;;;;;;;;;4985855;28;20433;-66
2021/09/20 14:20:24;;;;;;;2.17;1.42;;;;;;;;;;4967900;28;20042;-65
2021/09/20 14:22:50;;;;;;;2.70;1.60;;;;;;;;;;4989431;28;20030;-66
2021/09/20 14:25:16;;;;;;;2.85;2.20;;;;;;;;;;4992762;28;20022;-66
2021/09/20 14:27:42;;;;;;;3.97;2.30;;;;;;;;;;4993694;28;20034;-66
2021/09/20 14:30:08;;;;;;;2.55;2.30;;;;;;;;;;4991423;28;20382;-66
2021/09/20 14:32:34;;;;;;;3.22;2.38;;;;;;;;;;4999358;28;20111;-66
2021/09/20 14:34:59;;;;;;;2.20;2.10;;;;;;;;;;4994226;28;20062;-66
2021/09/20 14:37:25;;;;;;;2.47;2.17;;;;;;;;;;4985748;28;20089;-66
2021/09/20 14:39:50;;;;;;;2.78;2.45;;;;;;;;;;4990335;28;20110;-66